Time;durP1;ratioP1;P1;durP2;ratioP2;P2;SDS_P1;SDS_P2;PMS_P1;PMS_P2;Temp;Humidity;BMP_temperature;BMP_pressure;BME280_temperature;BME280_humidity;BME280_pressure;Samples;Min_cycle;Max_cycle;Signal;HPM_P1;HPM_P2
2024/04/11 00:02:20;;;;;;;3.00;0.60;;;24.90;99.90;;;;;;5363254;26;20001;-49
2024/04/11 00:04:46;;;;;;;5.82;1.30;;;25.00;99.90;;;;;;5355527;26;20445;-49
2024/04/11 00:07:11;;;;;;;1.40;0.90;;;24.90;99.90;;;;;;5359709;26;20001;-49
2024/04/11 00:09:37;;;;;;;1.70;0.70;;;24.90;99.90;;;;;;5378918;26;20405;-49
2024/04/11 00:12:03;;;;;;;2.95;0.70;;;24.90;99.90;;;;;;5362903;26;20332;-50
2024/04/11 00:14:29;;;;;;;1.48;0.82;;;24.90;99.90;;;;;;5368556;26;20129;-48
2024/04/11 00:16:55;;;;;;;3.58;1.10;;;24.90;99.90;;;;;;5354576;26;19997;-48
2024/04/11 00:19:21;;;;;;;2.05;0.80;;;24.90;99.90;;;;;;5359693;26;20001;-49
2024/04/11 00:21:50;;;;;;;2.08;0.80;;;24.90;99.90;;;;;;5353370;26;20580;-49
2024/04/11 00:24:16;;;;;;;2.42;0.90;;;24.80;99.90;;;;;;5404488;26;20073;-49
2024/04/11 00:26:42;;;;;;;3.75;1.00;;;24.80;99.90;;;;;;5414732;26;20456;-47
2024/04/11 00:29:09;;;;;;;2.42;0.90;;;24.80;99.90;;;;;;5410601;26;20007;-48
2024/04/11 00:31:36;;;;;;;3.83;0.98;;;24.80;99.90;;;;;;5413609;26;20018;-47
2024/04/11 00:34:23;;;;;;;5.35;0.80;;;24.80;99.90;;;;;;5389834;26;20015;-50
2024/04/11 00:36:50;;;;;;;1.48;0.60;;;24.80;99.90;;;;;;5390176;26;19992;-52
2024/04/11 00:39:20;;;;;;;;;;;24.80;99.90;;;;;;5370436;26;20431;-51
2024/04/11 00:41:50;;;;;;;0.90;0.65;;;24.80;99.90;;;;;;5370755;26;20269;-46
2024/04/11 00:44:17;;;;;;;1.67;0.90;;;24.80;99.90;;;;;;5376583;26;20012;-49
2024/04/11 00:46:53;;;;;;;1.92;0.82;;;24.70;99.90;;;;;;5374582;26;20007;-49
2024/04/11 00:49:20;;;;;;;3.00;0.90;;;24.70;99.90;;;;;;5362849;26;19996;-49
2024/04/11 00:57:00;;;;;;;3.95;0.75;;;24.70;99.90;;;;;;5587440;21;20007;-47
2024/04/11 00:59:27;;;;;;;1.80;0.50;;;24.70;99.90;;;;;;5381365;26;20328;-49
2024/04/11 01:01:52;;;;;;;4.25;0.90;;;24.70;99.90;;;;;;5371441;26;20399;-52
2024/04/11 01:04:19;;;;;;;4.97;0.80;;;24.70;99.90;;;;;;5356903;26;20001;-51
2024/04/11 01:09:33;;;;;;;1.65;0.55;;;24.70;99.90;;;;;;5353546;26;20471;-49
2024/04/11 01:12:02;;;;;;;2.10;0.95;;;24.70;99.90;;;;;;5374370;26;20007;-49
2024/04/11 01:14:28;;;;;;;1.60;0.63;;;24.70;99.90;;;;;;5377895;26;20011;-48
2024/04/11 01:16:55;;;;;;;2.03;0.70;;;24.60;99.90;;;;;;5374952;26;20004;-48
2024/04/11 01:19:22;;;;;;;1.20;0.80;;;24.60;99.90;;;;;;5379464;26;20051;-49
2024/04/11 01:21:49;;;;;;;2.25;0.77;;;24.60;99.90;;;;;;5374836;26;20020;-49
2024/04/11 01:24:15;;;;;;;3.65;0.80;;;24.60;99.90;;;;;;5376309;26;20134;-49
2024/04/11 01:26:41;;;;;;;1.13;0.80;;;24.60;99.90;;;;;;5379828;26;20008;-49
2024/04/11 01:29:07;;;;;;;1.52;1.00;;;24.60;99.90;;;;;;5375880;26;19992;-50
2024/04/11 01:31:34;;;;;;;3.47;1.08;;;24.50;99.90;;;;;;5380051;26;20345;-48
2024/04/11 01:34:00;;;;;;;2.08;0.93;;;24.60;99.90;;;;;;5379944;26;20455;-49
2024/04/11 01:36:25;;;;;;;4.03;0.82;;;24.50;99.90;;;;;;5378831;26;20362;-48
2024/04/11 01:38:51;;;;;;;1.08;0.52;;;24.50;99.90;;;;;;5379194;26;20004;-49
2024/04/11 01:41:17;;;;;;;3.60;1.10;;;24.50;99.90;;;;;;5380015;26;20007;-49
2024/04/11 01:43:43;;;;;;;3.33;0.77;;;24.50;99.90;;;;;;5380297;26;20462;-49
2024/04/11 01:46:09;;;;;;;1.08;0.40;;;24.50;99.90;;;;;;5380138;26;20003;-49
2024/04/11 01:48:35;;;;;;;2.35;0.70;;;24.50;99.90;;;;;;5379819;26;19992;-49
2024/04/11 01:51:01;;;;;;;2.53;0.70;;;24.50;99.90;;;;;;5378309;26;20002;-49
2024/04/11 01:53:27;;;;;;;1.80;0.60;;;24.50;99.90;;;;;;5379843;26;19996;-49
2024/04/11 01:55:53;;;;;;;1.30;0.60;;;24.50;99.90;;;;;;5379578;26;20004;-50
2024/04/11 01:58:22;;;;;;;1.80;0.85;;;24.50;99.90;;;;;;5380145;26;19996;-48
2024/04/11 02:00:48;;;;;;;2.15;0.80;;;24.50;99.90;;;;;;5379960;26;20082;-48
2024/04/11 02:03:14;;;;;;;3.58;1.40;;;24.40;99.90;;;;;;5379859;26;20008;-48
2024/04/11 02:05:43;;;;;;;6.55;1.00;;;24.40;99.90;;;;;;5380071;26;20331;-48
2024/04/11 02:08:09;;;;;;;4.18;1.05;;;24.40;99.90;;;;;;5379671;26;20099;-48
2024/04/11 02:10:38;;;;;;;2.67;0.80;;;24.40;99.90;;;;;;5380150;26;20468;-48
2024/04/11 02:13:04;;;;;;;2.53;0.85;;;24.40;99.90;;;;;;5379939;26;20000;-48
2024/04/11 02:15:29;;;;;;;5.40;1.15;;;24.30;99.90;;;;;;5377991;26;20012;-50
2024/04/11 02:17:55;;;;;;;4.20;1.45;;;24.40;99.90;;;;;;5377806;26;20003;-49
2024/04/11 02:20:22;;;;;;;1.65;0.80;;;24.40;99.90;;;;;;5379546;26;19996;-49
2024/04/11 02:22:50;;;;;;;1.92;1.15;;;24.30;99.90;;;;;;5381832;26;20091;-49
2024/04/11 02:25:17;;;;;;;1.63;1.15;;;24.30;99.90;;;;;;5383048;26;20000;-50
2024/04/11 02:27:43;;;;;;;3.15;0.95;;;24.30;99.90;;;;;;5383339;26;20000;-50
2024/04/11 02:30:09;;;;;;;2.35;0.90;;;24.30;99.90;;;;;;5382998;26;20416;-50
2024/04/11 02:32:41;;;;;;;1.98;1.08;;;24.30;99.90;;;;;;5383161;26;20040;-48
2024/04/11 02:35:11;;;;;;;3.80;1.48;;;24.30;99.90;;;;;;5383024;26;20468;-48
2024/04/11 02:37:39;;;;;;;3.72;0.95;;;24.20;99.90;;;;;;5382868;26;20448;-49
2024/04/11 02:40:08;;;;;;;1.48;0.98;;;24.30;99.90;;;;;;5383270;26;20363;-48
2024/04/11 02:42:38;;;;;;;2.10;0.95;;;24.20;99.90;;;;;;5383092;26;20474;-48
2024/04/11 02:45:07;;;;;;;2.65;0.93;;;24.20;99.90;;;;;;5383116;26;20455;-49
2024/04/11 02:47:36;;;;;;;3.88;1.20;;;24.20;99.90;;;;;;5383216;26;20073;-49
2024/04/11 02:50:02;;;;;;;2.10;1.23;;;24.20;99.90;;;;;;5382750;26;20455;-49
2024/04/11 02:52:28;;;;;;;5.18;1.42;;;24.20;99.90;;;;;;5382862;26;20563;-50
2024/04/11 02:54:54;;;;;;;3.00;1.20;;;24.20;99.90;;;;;;5380836;26;20444;-50
2024/04/11 02:57:21;;;;;;;1.10;1.00;;;24.20;99.90;;;;;;5382638;26;20230;-49
2024/04/11 02:59:51;;;;;;;4.18;1.85;;;24.20;99.90;;;;;;5382643;26;20006;-50
2024/04/11 03:02:17;;;;;;;2.65;1.25;;;24.20;99.90;;;;;;5382619;26;19997;-49
2024/04/11 03:04:43;;;;;;;1.35;1.00;;;24.20;99.90;;;;;;5382741;26;20333;-50
2024/04/11 03:07:09;;;;;;;3.88;1.15;;;24.10;99.90;;;;;;5382587;26;19996;-49
2024/04/11 03:09:35;;;;;;;3.10;1.30;;;24.10;99.90;;;;;;5382955;26;20073;-50
2024/04/11 03:12:01;;;;;;;4.03;1.63;;;24.10;99.90;;;;;;5380942;26;20004;-49
2024/04/11 03:14:27;;;;;;;2.40;1.10;;;24.10;99.90;;;;;;5380566;26;20452;-50
2024/04/11 03:16:53;;;;;;;1.73;1.20;;;24.10;99.90;;;;;;5382361;26;20000;-50
2024/04/11 03:19:19;;;;;;;2.75;1.13;;;24.10;99.90;;;;;;5382291;26;20479;-50
2024/04/11 03:21:45;;;;;;;2.75;1.48;;;24.00;99.90;;;;;;5382415;26;20073;-50
2024/04/11 03:24:12;;;;;;;4.32;1.20;;;24.10;99.90;;;;;;5382336;26;20008;-49
2024/04/11 03:26:40;;;;;;;2.42;1.10;;;24.00;99.90;;;;;;5382658;26;20000;-49
2024/04/11 03:29:06;;;;;;;3.15;1.40;;;24.00;99.90;;;;;;5382545;26;20000;-50
2024/04/11 03:31:32;;;;;;;4.68;1.60;;;24.00;99.90;;;;;;5382015;26;20004;-50
2024/04/11 03:33:59;;;;;;;2.80;1.77;;;24.00;99.90;;;;;;5382045;26;20072;-50
2024/04/11 03:36:25;;;;;;;1.60;1.23;;;24.00;99.90;;;;;;5380468;26;20067;-49
2024/04/11 03:38:54;;;;;;;2.28;1.23;;;24.00;99.90;;;;;;5382196;26;19996;-49
2024/04/11 03:41:20;;;;;;;4.55;1.30;;;24.00;99.90;;;;;;5382096;26;20032;-53
2024/04/11 03:43:53;;;;;;;2.22;1.55;;;24.00;99.90;;;;;;5381974;26;20012;-49
2024/04/11 03:46:21;;;;;;;2.60;1.30;;;24.00;99.90;;;;;;5382207;26;20066;-49
2024/04/11 03:48:55;;;;;;;4.30;1.83;;;24.00;99.90;;;;;;5381895;26;20036;-49
2024/04/11 03:51:23;;;;;;;3.50;1.45;;;24.00;99.90;;;;;;5381925;26;20000;-49
2024/04/11 03:53:56;;;;;;;1.98;1.50;;;24.00;99.90;;;;;;5379654;26;19996;-50
2024/04/11 03:56:27;;;;;;;2.28;1.50;;;23.90;99.90;;;;;;5381543;26;20370;-50
2024/04/11 03:58:57;;;;;;;2.45;1.48;;;23.90;99.90;;;;;;5380133;26;20036;-50
2024/04/11 04:01:26;;;;;;;2.47;1.60;;;23.90;99.90;;;;;;5382020;26;20011;-50
2024/04/11 04:03:53;;;;;;;2.92;1.85;;;23.90;99.90;;;;;;5381682;26;20011;-50
2024/04/11 04:06:19;;;;;;;2.70;1.10;;;23.90;99.90;;;;;;5381693;26;20463;-49
2024/04/11 04:08:47;;;;;;;1.95;1.40;;;23.90;99.90;;;;;;5381593;26;19996;-49
2024/04/11 04:11:14;;;;;;;4.75;1.67;;;23.90;99.90;;;;;;5381651;26;20062;-50
2024/04/11 04:13:41;;;;;;;2.22;1.20;;;23.80;99.90;;;;;;5382099;26;19996;-50
2024/04/11 04:16:11;;;;;;;2.50;1.52;;;23.80;99.90;;;;;;5381547;26;19996;-50
2024/04/11 04:18:37;;;;;;;2.25;1.27;;;23.80;99.90;;;;;;5381493;26;20000;-50
2024/04/11 04:21:04;;;;;;;6.32;2.08;;;23.80;99.90;;;;;;5381650;26;20004;-50
2024/04/11 04:23:30;;;;;;;2.65;1.60;;;23.80;99.90;;;;;;5381587;26;20042;-50
2024/04/11 04:26:02;;;;;;;1.95;1.38;;;23.80;99.90;;;;;;5381431;26;19999;-50
2024/04/11 04:28:36;;;;;;;2.50;1.60;;;23.80;99.90;;;;;;5381565;26;20020;-50
2024/04/11 04:31:29;;;;;;;8.63;1.88;;;23.80;99.90;;;;;;5381443;26;19996;-50
2024/04/11 04:34:00;;;;;;;1.67;1.58;;;23.80;99.90;;;;;;5376968;26;20451;-50
2024/04/11 04:36:27;;;;;;;1.65;1.20;;;23.80;99.90;;;;;;5381456;26;20000;-50
2024/04/11 04:38:56;;;;;;;5.55;1.75;;;23.80;99.90;;;;;;5381318;26;20008;-50
2024/04/11 04:41:27;;;;;;;3.83;1.80;;;23.80;99.90;;;;;;5381324;26;20050;-50
2024/04/11 04:43:55;;;;;;;2.63;1.45;;;23.80;99.90;;;;;;5379367;26;19996;-50
2024/04/11 04:46:26;;;;;;;2.80;1.70;;;23.70;99.90;;;;;;5380426;26;20000;-49
2024/04/11 04:48:52;;;;;;;1.98;1.50;;;23.70;99.90;;;;;;5379504;26;20011;-50
2024/04/11 04:51:19;;;;;;;2.28;1.38;;;23.80;99.90;;;;;;5381341;26;20028;-51
2024/04/11 04:53:46;;;;;;;2.92;1.80;;;23.70;99.90;;;;;;5379116;26;20000;-50
2024/04/11 04:56:13;;;;;;;3.58;1.38;;;23.70;99.90;;;;;;5381136;26;20528;-50
2024/04/11 04:58:41;;;;;;;2.08;1.45;;;23.70;99.90;;;;;;5381065;26;20000;-48
2024/04/11 05:01:08;;;;;;;3.28;1.60;;;23.70;99.90;;;;;;5379248;26;19996;-49
2024/04/11 05:03:40;;;;;;;2.50;1.73;;;23.70;99.90;;;;;;5379126;26;20000;-50
2024/04/11 05:06:12;;;;;;;3.22;1.88;;;23.70;99.90;;;;;;5379075;26;20103;-50
2024/04/11 05:08:44;;;;;;;2.75;1.20;;;23.70;99.90;;;;;;5380889;26;19996;-50
2024/04/11 05:11:12;;;;;;;2.15;1.52;;;23.70;99.90;;;;;;5380962;26;20011;-51
2024/04/11 05:13:39;;;;;;;3.55;1.48;;;23.70;99.90;;;;;;5380710;26;20316;-50
2024/04/11 05:16:06;;;;;;;1.83;1.30;;;23.60;99.90;;;;;;5380818;26;20024;-50
2024/04/11 05:18:37;;;;;;;2.80;1.73;;;23.70;99.90;;;;;;5379069;26;20467;-49
2024/04/11 05:21:08;;;;;;;4.72;2.08;;;23.60;99.90;;;;;;5380616;26;20000;-50
2024/04/11 05:23:36;;;;;;;1.83;1.20;;;23.60;99.90;;;;;;5380690;26;19996;-52
2024/04/11 05:26:07;;;;;;;5.07;1.60;;;23.60;99.90;;;;;;5380678;26;19996;-50
2024/04/11 05:28:36;;;;;;;4.00;1.77;;;23.60;99.90;;;;;;5380472;26;20410;-50
2024/04/11 05:31:06;;;;;;;2.22;1.30;;;23.60;99.90;;;;;;5380475;26;20480;-50
2024/04/11 05:33:38;;;;;;;1.77;1.20;;;23.60;99.90;;;;;;5380299;26;20007;-50
2024/04/11 05:36:12;;;;;;;3.08;1.73;;;23.60;99.90;;;;;;5380191;26;19997;-49
2024/04/11 05:38:43;;;;;;;6.18;1.38;;;23.50;99.90;;;;;;5380351;26;20004;-51
2024/04/11 05:41:09;;;;;;;1.50;1.30;;;23.60;99.90;;;;;;5380258;26;20344;-50
2024/04/11 05:43:38;;;;;;;1.95;1.48;;;23.60;99.90;;;;;;5380163;26;19996;-50
2024/04/11 05:46:05;;;;;;;2.92;1.98;;;23.50;99.90;;;;;;5379967;26;19996;-50
2024/04/11 05:48:31;;;;;;;2.95;1.20;;;23.50;99.90;;;;;;5380221;26;20387;-50
2024/04/11 05:50:58;;;;;;;2.67;1.60;;;23.50;99.90;;;;;;5380099;26;20396;-50
2024/04/11 05:53:24;;;;;;;3.05;1.48;;;23.50;99.90;;;;;;5379879;26;20001;-51
2024/04/11 05:55:53;;;;;;;3.40;1.55;;;23.50;99.90;;;;;;5378642;26;20401;-50
2024/04/11 05:58:21;;;;;;;2.25;1.50;;;23.50;99.90;;;;;;5383527;26;20006;-49
2024/04/11 06:00:49;;;;;;;2.72;1.50;;;23.50;99.90;;;;;;5383603;26;20008;-49
2024/04/11 06:03:18;;;;;;;3.90;1.55;;;23.50;99.90;;;;;;5383696;26;20009;-50
2024/04/11 06:05:46;;;;;;;2.42;1.50;;;23.50;99.90;;;;;;5381993;26;20015;-50
2024/04/11 06:08:13;;;;;;;2.13;1.50;;;23.50;99.90;;;;;;5383432;26;20032;-50
2024/04/11 06:10:40;;;;;;;6.25;2.08;;;23.40;99.90;;;;;;5383336;26;20012;-49
2024/04/11 06:13:06;;;;;;;2.55;1.38;;;23.50;99.90;;;;;;5383466;26;20000;-50
2024/04/11 06:15:32;;;;;;;2.47;1.23;;;23.40;99.90;;;;;;5381492;26;20000;-49
2024/04/11 06:17:58;;;;;;;2.47;1.30;;;23.40;99.90;;;;;;5383150;26;20011;-49
2024/04/11 06:20:24;;;;;;;2.38;1.30;;;23.40;99.90;;;;;;5382972;26;20073;-49
2024/04/11 06:22:55;;;;;;;2.20;1.40;;;23.40;99.90;;;;;;5381305;26;20000;-49
2024/04/11 06:25:25;;;;;;;2.13;1.27;;;23.40;99.90;;;;;;5383070;26;19998;-49
2024/04/11 06:27:52;;;;;;;3.70;1.38;;;23.40;99.90;;;;;;5382816;26;19996;-56
2024/04/11 06:30:19;;;;;;;1.85;1.25;;;23.40;99.90;;;;;;5381469;26;20028;-50
2024/04/11 06:32:49;;;;;;;2.47;1.58;;;23.40;99.90;;;;;;5383286;26;20008;-49
2024/04/11 06:35:14;;;;;;;3.90;1.60;;;23.40;99.90;;;;;;5383349;26;20007;-49
2024/04/11 06:37:44;;;;;;;3.20;1.67;;;23.40;99.90;;;;;;5383031;26;20336;-49
2024/04/11 06:40:13;;;;;;;2.28;1.42;;;23.40;99.90;;;;;;5381077;26;20121;-50
2024/04/11 06:42:46;;;;;;;2.40;1.67;;;23.30;99.90;;;;;;5382930;26;20073;-49
2024/04/11 06:45:14;;;;;;;4.75;1.63;;;23.30;99.90;;;;;;5382819;26;20000;-49
2024/04/11 06:47:42;;;;;;;1.95;1.20;;;23.30;99.90;;;;;;5381191;26;20010;-49
2024/04/11 06:50:09;;;;;;;2.10;1.42;;;23.30;99.90;;;;;;5382814;26;20007;-48
2024/04/11 06:52:36;;;;;;;3.70;1.50;;;23.30;99.90;;;;;;5382651;26;20313;-49
2024/04/11 06:55:05;;;;;;;2.90;1.83;;;23.30;99.90;;;;;;5382714;26;20339;-49
2024/04/11 06:57:37;;;;;;;2.72;1.67;;;23.30;99.90;;;;;;5382365;26;20000;-48
2024/04/11 07:00:14;;;;;;;5.03;2.15;;;23.30;99.90;;;;;;5382787;26;20028;-48
2024/04/11 07:02:44;;;;;;;3.08;1.92;;;23.30;99.90;;;;;;5382703;26;20340;-49
2024/04/11 07:05:13;;;;;;;4.32;2.17;;;23.30;99.90;;;;;;5382598;26;20001;-48
2024/04/11 07:07:41;;;;;;;4.75;2.45;;;23.30;99.90;;;;;;5380031;26;20071;-49
2024/04/11 07:10:15;;;;;;;7.82;3.70;;;23.30;99.90;;;;;;5382419;26;20372;-47
2024/04/11 07:12:46;;;;;;;5.10;3.65;;;23.30;99.90;;;;;;5382659;26;20004;-49
2024/04/11 07:15:18;;;;;;;6.80;3.55;;;23.30;99.90;;;;;;5382441;26;20028;-49
2024/04/11 07:17:56;;;;;;;7.78;2.78;;;23.30;99.90;;;;;;5382331;26;20032;-48
2024/04/11 07:20:30;;;;;;;4.63;2.92;;;23.30;99.90;;;;;;5382230;26;20358;-49
2024/04/11 07:22:58;;;;;;;6.20;3.55;;;23.30;99.90;;;;;;5382292;26;19996;-50
2024/04/11 07:25:30;;;;;;;4.80;3.13;;;23.30;99.90;;;;;;5382227;26;19997;-48
2024/04/11 07:27:56;;;;;;;4.45;2.72;;;23.30;99.90;;;;;;5382224;26;20000;-49
2024/04/11 07:30:25;;;;;;;3.35;2.42;;;23.30;99.90;;;;;;5380609;26;20012;-48
2024/04/11 07:32:52;;;;;;;6.45;3.80;;;23.30;99.90;;;;;;5382337;26;20008;-49
2024/04/11 07:35:18;;;;;;;5.18;3.15;;;23.30;99.90;;;;;;5382392;26;20000;-49
2024/04/11 07:37:44;;;;;;;5.20;3.50;;;23.30;99.90;;;;;;5380391;26;20077;-49
2024/04/11 07:40:32;;;;;;;5.68;3.35;;;23.30;99.90;;;;;;5382196;26;19996;-48
2024/04/11 07:43:09;;;;;;;5.35;2.90;;;23.30;99.90;;;;;;5381763;26;20004;-48
2024/04/11 07:45:40;;;;;;;5.60;2.90;;;23.30;99.90;;;;;;5381778;26;19996;-48
2024/04/11 07:48:08;;;;;;;6.60;3.50;;;23.30;99.90;;;;;;5380056;26;20000;-49
2024/04/11 07:50:40;;;;;;;6.32;3.45;;;23.40;99.90;;;;;;5381658;26;20317;-48
2024/04/11 07:53:15;;;;;;;5.03;3.35;;;23.30;99.90;;;;;;5382002;26;20010;-48
2024/04/11 07:55:46;;;;;;;4.68;2.92;;;23.30;99.90;;;;;;5381911;26;20011;-47
2024/04/11 07:58:18;;;;;;;6.00;3.10;;;23.40;99.90;;;;;;5381734;26;19996;-48
2024/04/11 08:00:54;;;;;;;4.55;3.13;;;23.40;99.90;;;;;;5381615;26;20647;-47
2024/04/11 08:03:21;;;;;;;4.60;2.97;;;23.30;99.90;;;;;;5381890;26;19996;-48
2024/04/11 08:05:50;;;;;;;4.53;3.00;;;23.30;99.90;;;;;;5381556;26;20008;-49
2024/04/11 08:08:20;;;;;;;5.88;3.15;;;23.30;99.90;;;;;;5379885;26;20288;-48
2024/04/11 08:10:48;;;;;;;4.55;2.80;;;23.40;99.90;;;;;;5379991;26;19997;-48
2024/04/11 08:13:15;;;;;;;4.35;2.65;;;23.30;99.90;;;;;;5381510;26;20011;-48
2024/04/11 08:15:40;;;;;;;4.93;2.78;;;23.30;99.90;;;;;;5381479;26;20360;-48
2024/04/11 08:18:08;;;;;;;6.65;2.70;;;23.30;99.90;;;;;;5381583;26;19996;-49
2024/04/11 08:20:34;;;;;;;4.38;3.15;;;23.30;99.90;;;;;;5380310;26;20004;-48
2024/04/11 08:23:01;;;;;;;5.43;2.97;;;23.30;99.90;;;;;;5381685;26;20011;-49
2024/04/11 08:25:27;;;;;;;3.60;2.30;;;23.30;99.90;;;;;;5380024;26;20077;-49
2024/04/11 08:27:55;;;;;;;5.10;2.90;;;23.30;99.90;;;;;;5380211;26;20439;-49
2024/04/11 08:30:20;;;;;;;4.38;2.78;;;23.30;99.90;;;;;;5381958;26;20000;-49
2024/04/11 08:32:46;;;;;;;5.32;2.72;;;23.30;99.90;;;;;;5379907;26;20010;-49
2024/04/11 08:35:19;;;;;;;3.33;2.35;;;23.30;99.90;;;;;;5381573;26;20335;-49
2024/04/11 08:37:54;;;;;;;5.25;2.70;;;23.30;99.90;;;;;;5381463;26;20426;-49
2024/04/11 08:40:20;;;;;;;3.50;2.38;;;23.40;99.90;;;;;;5381278;26;19996;-50
2024/04/11 08:42:50;;;;;;;4.78;2.92;;;23.30;99.90;;;;;;5379468;26;20008;-47
2024/04/11 08:45:17;;;;;;;3.70;2.20;;;23.40;99.90;;;;;;5381222;26;20000;-47
2024/04/11 08:47:46;;;;;;;3.30;2.30;;;23.40;99.90;;;;;;5381126;26;20011;-48
2024/04/11 08:50:12;;;;;;;3.92;2.40;;;23.40;99.90;;;;;;5379550;26;20230;-49
2024/04/11 08:52:42;;;;;;;3.95;2.38;;;23.40;99.90;;;;;;5381403;26;20073;-49
2024/04/11 08:55:10;;;;;;;4.78;2.60;;;23.40;99.90;;;;;;5381132;26;20008;-48
2024/04/11 08:57:37;;;;;;;4.63;2.25;;;23.40;99.90;;;;;;5379392;26;20458;-48
2024/04/11 09:00:09;;;;;;;3.90;2.72;;;23.40;99.90;;;;;;5380915;26;20006;-48
2024/04/11 09:02:37;;;;;;;3.63;2.20;;;23.40;99.90;;;;;;5381028;26;19996;-48
2024/04/11 09:05:05;;;;;;;5.07;2.50;;;23.40;99.90;;;;;;5379309;26;19996;-48
2024/04/11 09:07:32;;;;;;;5.10;2.35;;;23.40;99.90;;;;;;5380743;26;20015;-47
2024/04/11 09:10:04;;;;;;;4.55;2.45;;;23.40;99.90;;;;;;5380808;26;20037;-48
2024/04/11 09:12:31;;;;;;;4.57;2.78;;;23.40;99.90;;;;;;5380535;26;19996;-48
2024/04/11 09:14:57;;;;;;;5.50;2.42;;;23.40;99.90;;;;;;5380569;26;20000;-47
2024/04/11 09:17:22;;;;;;;3.90;2.58;;;23.40;99.90;;;;;;5380344;26;20000;-48
2024/04/11 09:19:49;;;;;;;3.83;2.05;;;23.40;99.90;;;;;;5379962;26;20000;-49
2024/04/11 09:22:21;;;;;;;4.33;2.43;;;23.40;99.90;;;;;;5380084;26;20000;-48
2024/04/11 09:24:47;;;;;;;3.55;2.40;;;23.40;99.90;;;;;;5380263;26;20470;-48
2024/04/11 09:27:16;;;;;;;2.58;1.98;;;23.40;99.90;;;;;;5380610;26;19996;-48
2024/04/11 09:29:52;;;;;;;4.78;2.13;;;23.40;99.90;;;;;;5380444;26;20000;-49
2024/04/11 09:32:21;;;;;;;3.90;1.92;;;23.40;99.90;;;;;;5382942;26;20463;-49
2024/04/11 09:34:50;;;;;;;3.60;2.05;;;23.50;99.90;;;;;;5383509;26;20024;-48
2024/04/11 09:37:21;;;;;;;6.30;2.15;;;23.40;99.90;;;;;;5381895;26;20463;-48
2024/04/11 09:39:56;;;;;;;6.28;2.60;;;23.50;99.90;;;;;;5383592;26;20065;-47
2024/04/11 09:42:26;;;;;;;4.03;2.45;;;23.50;99.90;;;;;;5383336;26;20327;-47
2024/04/11 09:44:53;;;;;;;3.22;2.10;;;23.50;99.90;;;;;;5383493;26;20448;-47
2024/04/11 09:47:24;;;;;;;3.63;2.33;;;23.50;99.90;;;;;;5383533;26;20011;-48
2024/04/11 09:49:53;;;;;;;5.25;2.33;;;23.50;99.90;;;;;;5383488;26;20010;-48
2024/04/11 09:52:26;;;;;;;3.88;1.90;;;23.50;99.90;;;;;;5383414;26;19996;-49
2024/04/11 09:54:52;;;;;;;2.70;2.13;;;23.50;99.90;;;;;;5383283;26;20000;-47
2024/04/11 09:57:21;;;;;;;5.85;2.40;;;23.50;99.90;;;;;;5381609;26;20024;-48
2024/04/11 09:59:48;;;;;;;4.85;2.40;;;23.50;99.90;;;;;;5383420;26;20007;-48
2024/04/11 10:02:16;;;;;;;7.43;2.47;;;23.60;99.90;;;;;;5383865;26;20065;-48
2024/04/11 10:04:42;;;;;;;9.00;2.35;;;23.60;99.90;;;;;;5383294;26;20000;-48
2024/04/11 10:07:19;;;;;;;4.07;2.25;;;23.60;99.90;;;;;;5383555;26;19996;-49
2024/04/11 10:09:49;;;;;;;3.75;2.65;;;23.60;99.90;;;;;;5383156;26;20024;-48
2024/04/11 10:12:28;;;;;;;5.68;2.40;;;23.70;99.90;;;;;;5381228;26;20033;-49
2024/04/11 10:14:57;;;;;;;6.38;2.10;;;23.70;99.90;;;;;;5383327;26;20000;-48
2024/04/11 10:17:29;;;;;;;4.15;2.30;;;23.70;99.90;;;;;;5383359;26;20011;-49
2024/04/11 10:20:02;;;;;;;3.85;1.88;;;23.60;99.90;;;;;;5383091;26;20000;-48
2024/04/11 10:22:29;;;;;;;3.67;1.88;;;23.70;99.90;;;;;;5382300;26;20004;-48
2024/04/11 10:25:06;;;;;;;5.72;2.08;;;23.70;99.90;;;;;;5354020;26;20440;-49
2024/04/11 10:27:34;;;;;;;4.53;1.95;;;23.70;99.90;;;;;;5367063;26;20005;-47
2024/04/11 10:30:06;;;;;;;6.50;2.30;;;23.80;99.90;;;;;;5381804;26;20493;-50
2024/04/11 10:32:39;;;;;;;10.50;2.58;;;23.80;99.90;;;;;;5372817;26;20044;-46
2024/04/11 10:35:07;;;;;;;5.97;2.20;;;23.80;99.90;;;;;;5381592;26;20008;-48
2024/04/11 10:37:39;;;;;;;3.47;2.20;;;23.80;99.90;;;;;;5380658;26;20004;-46
2024/04/11 10:40:09;;;;;;;8.15;2.63;;;23.80;99.90;;;;;;5370083;26;20012;-46
2024/04/11 10:42:36;;;;;;;6.63;2.15;;;23.90;99.90;;;;;;5370233;26;20042;-49
2024/04/11 10:45:12;;;;;;;4.60;1.90;;;23.90;99.90;;;;;;5360473;26;20051;-49
2024/04/11 10:47:38;;;;;;;2.30;1.75;;;23.90;99.90;;;;;;5376731;26;20478;-50
2024/04/11 10:50:15;;;;;;;2.50;1.75;;;24.00;99.90;;;;;;5382465;26;20000;-49
2024/04/11 10:52:45;;;;;;;4.32;1.73;;;24.00;99.90;;;;;;5382018;26;20032;-48
2024/04/11 10:55:22;;;;;;;10.57;2.05;;;24.00;99.90;;;;;;5382206;26;20336;-48
2024/04/11 10:57:56;;;;;;;6.18;2.10;;;24.00;99.90;;;;;;5382139;26;20004;-50
2024/04/11 11:00:52;;;;;;;4.70;1.98;;;24.10;99.90;;;;;;5372877;26;20000;-49
2024/04/11 11:03:14;;;;;;;6.63;2.22;;;24.10;99.90;;;;;;5368671;26;20000;-50
2024/04/11 11:05:44;;;;;;;12.27;2.15;;;24.10;99.90;;;;;;5369649;26;20077;-50
2024/04/11 11:08:12;;;;;;;4.78;2.08;;;24.10;99.90;;;;;;5377768;26;20059;-48
2024/04/11 11:10:40;;;;;;;6.50;2.05;;;24.20;99.90;;;;;;5379882;26;20019;-48
2024/04/11 11:13:06;;;;;;;6.60;1.30;;;24.20;99.90;;;;;;5361306;26;20016;-49
2024/04/11 11:15:34;;;;;;;7.70;1.60;;;24.20;99.90;;;;;;5374542;26;20015;-51
2024/04/11 11:18:00;;;;;;;2.65;1.00;;;24.20;99.90;;;;;;5382166;26;20336;-48
2024/04/11 11:20:26;;;;;;;4.80;2.05;;;24.20;99.90;;;;;;5381384;26;20050;-50
2024/04/11 11:22:56;;;;;;;4.10;1.52;;;24.20;99.90;;;;;;5381782;26;20081;-49
2024/04/11 11:25:23;;;;;;;2.05;0.63;;;24.20;99.90;;;;;;5381473;26;20043;-49
2024/04/11 11:27:51;;;;;;;2.78;0.90;;;24.30;99.90;;;;;;5381888;26;20473;-49
2024/04/11 11:30:16;;;;;;;6.10;1.52;;;24.30;99.90;;;;;;5381025;26;20467;-49
2024/04/11 11:32:43;;;;;;;2.65;0.57;;;24.30;99.90;;;;;;5381686;26;20000;-50
2024/04/11 11:35:12;;;;;;;1.48;0.75;;;24.30;99.90;;;;;;5381448;26;20007;-50
2024/04/11 11:37:41;;;;;;;3.45;1.38;;;24.30;99.90;;;;;;5381680;26;20091;-51
2024/04/11 11:42:52;;;;;;;9.55;1.55;;;24.40;99.90;;;;;;5378789;26;20011;-51
2024/04/11 11:45:27;;;;;;;3.92;1.50;;;24.40;99.90;;;;;;5377837;26;20433;-50
2024/04/11 11:47:57;;;;;;;6.15;1.38;;;24.40;99.90;;;;;;5378110;26;20487;-50
2024/04/11 11:50:33;;;;;;;4.20;1.63;;;24.40;99.90;;;;;;5378183;26;19996;-50
2024/04/11 11:53:24;;;;;;;2.95;1.60;;;24.40;99.90;;;;;;5378244;26;20007;-50
2024/04/11 11:55:45;;;;;;;8.13;1.50;;;24.40;99.90;;;;;;5377490;26;19992;-51
2024/04/11 11:58:10;;;;;;;5.30;1.45;;;24.50;99.90;;;;;;5353202;26;20051;-52
2024/04/11 12:00:49;;;;;;;3.58;0.85;;;24.50;99.90;;;;;;5346800;26;20005;-53
2024/04/11 12:03:20;;;;;;;2.05;0.90;;;24.50;99.90;;;;;;5346399;26;19993;-52
2024/04/11 12:05:50;;;;;;;3.85;1.50;;;24.50;99.90;;;;;;5354269;26;20068;-53
2024/04/11 12:08:16;;;;;;;6.78;1.20;;;24.50;99.90;;;;;;5380050;26;20024;-53
2024/04/11 12:13:42;;;;;;;6.03;1.30;;;24.60;99.90;;;;;;5380522;26;20044;-51
2024/04/11 12:16:08;;;;;;;1.40;0.75;;;24.60;99.90;;;;;;5379197;26;20363;-53
2024/04/11 12:18:34;;;;;;;2.08;0.60;;;24.60;99.90;;;;;;5376473;26;20015;-53
2024/04/11 12:21:02;;;;;;;3.28;0.60;;;24.70;99.90;;;;;;5380899;26;20054;-51
2024/04/11 12:23:28;;;;;;;2.85;1.02;;;24.70;99.90;;;;;;5378813;26;20447;-52
2024/04/11 12:25:57;;;;;;;1.92;0.50;;;24.70;99.90;;;;;;5375842;26;20000;-50
2024/04/11 12:28:25;;;;;;;2.72;0.35;;;24.70;99.90;;;;;;5378435;26;20004;-51
2024/04/11 12:31:01;;;;;;;2.38;0.60;;;24.70;99.90;;;;;;5379138;26;20012;-52
2024/04/11 12:33:27;;;;;;;1.65;0.80;;;24.70;99.90;;;;;;5375851;26;20086;-53
2024/04/11 12:35:55;;;;;;;1.63;1.00;;;24.70;99.90;;;;;;5379658;26;20467;-51
2024/04/11 12:38:24;;;;;;;2.22;1.30;;;24.70;99.90;;;;;;5380549;26;20467;-50
2024/04/11 12:40:51;;;;;;;2.67;1.60;;;24.70;99.90;;;;;;5380364;26;20007;-51
2024/04/11 12:43:20;;;;;;;2.45;0.80;;;24.80;99.90;;;;;;5380626;26;20015;-53
2024/04/11 12:45:52;;;;;;;3.53;0.80;;;24.80;99.90;;;;;;5381019;26;20000;-52
2024/04/11 12:48:25;;;;;;;7.25;0.80;;;24.80;99.90;;;;;;5381179;26;20475;-53
2024/04/11 12:50:59;;;;;;;2.92;0.52;;;24.80;99.90;;;;;;5381124;26;20004;-52
2024/04/11 12:53:27;;;;;;;2.78;0.47;;;24.80;99.90;;;;;;5364222;26;20077;-52
2024/04/11 12:55:55;;;;;;;3.55;1.13;;;24.90;99.90;;;;;;5342586;26;19999;-54
2024/04/11 12:58:24;;;;;;;3.72;0.95;;;24.90;99.90;;;;;;5342387;26;20502;-53
2024/04/11 13:01:03;;;;;;;4.43;0.73;;;24.90;99.90;;;;;;5359646;26;20004;-51
2024/04/11 13:04:08;;;;;;;3.15;0.68;;;24.90;99.90;;;;;;5377335;26;20832;-54
2024/04/11 13:06:29;;;;;;;1.35;0.40;;;25.00;99.90;;;;;;5375947;26;20008;-55
2024/04/11 13:09:09;;;;;;;3.85;0.98;;;25.00;99.90;;;;;;5377254;26;20074;-52
2024/04/11 13:11:38;;;;;;;3.20;0.60;;;25.00;99.90;;;;;;5379389;26;20000;-52